createdAt,value
2022-10-28T00:01:57.902Z,10.96
2022-10-28T00:05:00.725Z,10.99
2022-10-28T00:08:03.233Z,11.00
2022-10-28T00:11:11.297Z,11.03
2022-10-28T00:14:15.074Z,11.03
2022-10-28T00:17:17.949Z,11.03
2022-10-28T00:20:20.588Z,11.04
2022-10-28T00:23:23.331Z,11.04
2022-10-28T00:26:30.650Z,11.08
2022-10-28T00:29:34.181Z,11.05
2022-10-28T00:32:37.230Z,11.03
2022-10-28T00:35:39.952Z,11.04
2022-10-28T00:38:43.814Z,11.01
2022-10-28T00:41:55.567Z,11.03
2022-10-28T00:45:00.273Z,11.02
2022-10-28T00:48:03.399Z,11.02
2022-10-28T00:51:06.301Z,11.03
2022-10-28T00:54:09.197Z,11.05
2022-10-28T00:57:18.789Z,11.04
2022-10-28T01:00:21.633Z,11.07
2022-10-28T01:03:24.146Z,11.08
2022-10-28T01:06:27.903Z,11.08
2022-10-28T01:09:30.835Z,11.08
2022-10-28T01:12:49.151Z,11.07
2022-10-28T01:16:06.039Z,11.08
2022-10-28T01:19:11.703Z,11.09
2022-10-28T01:22:35.652Z,11.06
2022-10-28T01:25:59.216Z,11.06
2022-10-28T01:29:39.081Z,11.04
2022-10-28T01:33:00.436Z,11.03
2022-10-28T01:36:11.786Z,10.95
2022-10-28T01:39:26.844Z,10.97
2022-10-28T01:42:51.245Z,10.94
2022-10-28T01:46:08.236Z,10.96
2022-10-28T01:49:22.154Z,10.95
2022-10-28T01:52:27.172Z,10.98
2022-10-28T01:55:33.979Z,10.96
2022-10-28T01:58:38.131Z,10.94
2022-10-28T02:01:42.033Z,10.94
2022-10-28T02:04:44.955Z,10.95
2022-10-28T02:07:47.863Z,10.95
2022-10-28T02:11:11.991Z,10.95
2022-10-28T02:14:22.483Z,10.98
2022-10-28T02:17:49.384Z,10.96
2022-10-28T02:21:05.766Z,10.99
2022-10-28T02:24:19.783Z,10.98
2022-10-28T02:27:34.853Z,10.98
2022-10-28T02:31:08.553Z,10.97
2022-10-28T02:34:14.543Z,10.98
2022-10-28T02:37:44.066Z,11.01
2022-10-28T02:40:50.432Z,11.00
2022-10-28T02:44:00.139Z,11.03
2022-10-28T02:47:07.879Z,11.03
2022-10-28T02:50:13.176Z,11.07
2022-10-28T02:53:19.860Z,11.05
2022-10-28T02:56:22.684Z,11.06
2022-10-28T02:59:28.344Z,11.09
2022-10-28T03:02:31.135Z,11.10
2022-10-28T03:05:33.562Z,11.08
2022-10-28T03:08:36.322Z,11.09
2022-10-28T03:11:38.798Z,11.07
2022-10-28T03:14:42.478Z,11.10
2022-10-28T03:17:45.006Z,11.08
2022-10-28T03:20:47.911Z,11.06
2022-10-28T03:23:50.359Z,11.01
2022-10-28T03:26:54.063Z,10.95
2022-10-28T03:29:56.515Z,10.90
2022-10-28T03:32:59.233Z,10.91
2022-10-28T03:36:01.702Z,10.85
2022-10-28T03:39:04.987Z,10.83
2022-10-28T03:42:07.474Z,10.85
2022-10-28T03:45:10.692Z,10.84
2022-10-28T03:48:13.202Z,10.81
2022-10-28T03:51:15.916Z,10.80
2022-10-28T03:54:18.433Z,10.79
2022-10-28T03:57:21.166Z,10.78
2022-10-28T04:00:23.695Z,10.79
2022-10-28T04:03:26.865Z,10.77
2022-10-28T04:06:29.340Z,10.74
2022-10-28T04:09:32.061Z,10.74
2022-10-28T04:12:34.537Z,10.75
2022-10-28T04:15:37.464Z,10.71
2022-10-28T04:18:40.000Z,10.72
2022-10-28T04:21:42.842Z,10.73
2022-10-28T04:24:45.400Z,10.68
2022-10-28T04:27:48.495Z,10.67
2022-10-28T04:30:51.003Z,10.68
2022-10-28T04:33:53.705Z,10.68
2022-10-28T04:36:56.170Z,10.68
2022-10-28T04:39:59.576Z,10.66
2022-10-28T04:43:01.988Z,10.67
2022-10-28T04:46:06.176Z,10.70
2022-10-28T04:49:08.753Z,10.70
2022-10-28T04:52:14.822Z,10.65
2022-10-28T04:55:19.057Z,10.64
2022-10-28T04:58:21.796Z,10.63
2022-10-28T05:01:24.338Z,10.62
2022-10-28T05:04:27.178Z,10.62
2022-10-28T05:07:29.656Z,10.62
2022-10-28T05:10:32.492Z,10.60
2022-10-28T05:13:35.018Z,10.58
2022-10-28T05:16:37.785Z,10.55
2022-10-28T05:19:40.544Z,10.55
2022-10-28T05:22:51.383Z,10.54
2022-10-28T05:25:54.001Z,10.53
2022-10-28T05:28:56.747Z,10.54
2022-10-28T05:31:59.741Z,10.54
2022-10-28T05:35:03.303Z,10.55
2022-10-28T05:38:06.303Z,10.57
2022-10-28T05:41:09.148Z,10.54
2022-10-28T05:44:11.739Z,10.54
2022-10-28T05:47:14.503Z,10.53
2022-10-28T05:50:18.550Z,10.59
2022-10-28T05:53:21.428Z,10.57
2022-10-28T05:56:24.045Z,10.55
2022-10-28T05:59:27.253Z,10.60
2022-10-28T06:02:29.942Z,10.60
2022-10-28T06:05:33.588Z,10.63
2022-10-28T06:08:36.460Z,10.55
2022-10-28T06:11:37.732Z,10.53
2022-10-28T06:14:40.245Z,10.51
2022-10-28T06:17:46.583Z,10.53
2022-10-28T06:20:56.612Z,10.52
2022-10-28T06:23:59.516Z,10.49
2022-10-28T06:27:02.223Z,10.55
2022-10-28T06:30:06.044Z,10.60
2022-10-28T06:33:08.666Z,10.63
2022-10-28T06:36:11.557Z,10.66
2022-10-28T06:39:14.170Z,10.67
2022-10-28T06:42:17.646Z,10.71
2022-10-28T06:45:20.135Z,10.70
2022-10-28T06:48:24.599Z,10.70
2022-10-28T06:51:27.132Z,10.71
2022-10-28T06:54:30.039Z,10.75
2022-10-28T06:57:32.659Z,10.77
2022-10-28T07:00:35.614Z,10.82
2022-10-28T07:03:38.134Z,10.82
2022-10-28T07:06:41.083Z,10.81
2022-10-28T07:09:45.084Z,10.83
2022-10-28T07:12:47.908Z,10.84
2022-10-28T07:15:54.673Z,10.77
2022-10-28T07:18:57.507Z,10.93
2022-10-28T07:22:00.168Z,10.93
2022-10-28T07:25:03.069Z,10.98
2022-10-28T07:28:05.671Z,11.04
2022-10-28T07:31:08.669Z,11.14
2022-10-28T07:34:11.207Z,11.16
2022-10-28T07:37:14.081Z,11.16
2022-10-28T07:40:16.748Z,11.18
2022-10-28T07:43:19.594Z,11.24
2022-10-28T07:46:22.105Z,11.26
2022-10-28T07:49:25.189Z,11.27
2022-10-28T07:52:28.036Z,11.27
2022-10-28T07:55:30.804Z,11.28
2022-10-28T07:58:33.454Z,11.23
2022-10-28T08:01:36.512Z,11.22
2022-10-28T08:04:40.511Z,11.32
2022-10-28T08:07:43.327Z,11.31
2022-10-28T08:10:46.215Z,11.29
2022-10-28T08:13:48.755Z,11.29
2022-10-28T08:16:51.635Z,11.29
2022-10-28T08:19:54.155Z,11.34
2022-10-28T08:22:59.515Z,11.30
2022-10-28T08:26:03.412Z,11.36
2022-10-28T08:29:07.046Z,11.44
2022-10-28T08:32:09.693Z,11.46
2022-10-28T08:35:12.518Z,11.49
2022-10-28T08:38:15.361Z,11.45
2022-10-28T08:41:27.274Z,11.40
2022-10-28T08:44:41.791Z,11.46
2022-10-28T08:47:44.590Z,11.48
2022-10-28T08:50:50.697Z,11.47
2022-10-28T08:53:57.070Z,11.49
2022-10-28T08:57:01.665Z,11.51
2022-10-28T09:00:09.801Z,11.58
2022-10-28T09:03:17.418Z,11.46
2022-10-28T09:06:20.677Z,11.63
2022-10-28T09:09:23.602Z,11.47
2022-10-28T09:12:55.935Z,11.58
2022-10-28T09:16:16.421Z,11.50
2022-10-28T09:19:50.853Z,11.70
2022-10-28T09:23:04.043Z,11.54
2022-10-28T09:26:18.583Z,11.71
2022-10-28T09:29:44.367Z,11.85
2022-10-28T09:33:16.564Z,11.89
2022-10-28T09:36:24.192Z,11.68
2022-10-28T09:39:36.648Z,11.80
2022-10-28T09:42:42.647Z,11.77
2022-10-28T09:45:47.596Z,11.81
2022-10-28T09:48:51.837Z,11.85
2022-10-28T09:52:16.359Z,11.82
2022-10-28T09:55:20.811Z,11.71
2022-10-28T09:58:24.135Z,11.89
2022-10-28T10:01:31.242Z,11.79
2022-10-28T10:04:35.809Z,11.78
2022-10-28T10:07:41.752Z,11.87
2022-10-28T10:11:01.123Z,11.94
2022-10-28T10:14:07.778Z,11.85
2022-10-28T10:17:16.930Z,11.99
2022-10-28T10:20:21.110Z,12.09
2022-10-28T10:23:30.070Z,12.18
2022-10-28T10:26:33.110Z,12.27
2022-10-28T10:29:36.473Z,12.30
2022-10-28T10:32:39.124Z,12.29
2022-10-28T10:35:41.985Z,12.14
2022-10-28T10:38:50.750Z,12.25
2022-10-28T10:41:56.646Z,12.21
2022-10-28T10:45:17.530Z,12.13
2022-10-28T10:48:20.451Z,12.06
2022-10-28T10:51:27.397Z,11.84
2022-10-28T10:54:32.267Z,12.08
2022-10-28T10:57:35.015Z,12.10
2022-10-28T11:00:39.071Z,12.07
2022-10-28T11:03:50.061Z,12.04
2022-10-28T11:06:57.191Z,11.85
2022-10-28T11:10:00.194Z,12.04
2022-10-28T11:13:24.832Z,12.01
2022-10-28T11:16:27.650Z,12.14
2022-10-28T11:19:31.687Z,12.24
2022-10-28T11:22:43.483Z,12.33
2022-10-28T11:25:52.918Z,12.45
2022-10-28T11:28:55.454Z,12.54
2022-10-28T11:32:16.832Z,12.69
2022-10-28T11:35:47.092Z,12.74
2022-10-28T11:39:15.195Z,12.48
2022-10-28T11:42:21.228Z,12.64
2022-10-28T11:45:35.682Z,12.70
2022-10-28T11:48:46.594Z,12.80
2022-10-28T11:52:05.874Z,12.44
2022-10-28T11:55:21.458Z,12.88
2022-10-28T11:58:46.039Z,12.84
2022-10-28T12:02:18.250Z,12.81
2022-10-28T12:05:44.031Z,12.86
2022-10-28T12:08:46.371Z,12.76
2022-10-28T12:12:17.770Z,12.73
2022-10-28T12:15:45.346Z,12.78
2022-10-28T12:18:58.306Z,12.61
2022-10-28T12:22:19.514Z,12.59
2022-10-28T12:25:28.949Z,12.43
2022-10-28T12:28:41.118Z,12.43
2022-10-28T12:31:48.233Z,12.56
2022-10-28T12:35:01.230Z,12.63
2022-10-28T12:38:09.064Z,12.64
2022-10-28T12:41:30.631Z,12.76
2022-10-28T12:44:33.618Z,12.90
2022-10-28T12:47:53.333Z,12.96
2022-10-28T12:51:33.333Z,13.00
2022-10-28T12:54:53.672Z,12.91
2022-10-28T12:58:09.872Z,13.00
2022-10-28T13:01:17.410Z,13.13
2022-10-28T13:04:20.406Z,13.17
2022-10-28T13:07:26.710Z,13.15
2022-10-28T13:10:50.147Z,13.23
2022-10-28T13:14:14.867Z,13.07
2022-10-28T13:17:32.073Z,12.83
2022-10-28T13:21:06.155Z,12.95
2022-10-28T13:24:22.653Z,12.86
2022-10-28T13:27:25.526Z,13.01
2022-10-28T13:30:30.772Z,12.92
2022-10-28T13:33:36.138Z,12.87
2022-10-28T13:36:42.829Z,12.93
2022-10-28T13:39:46.799Z,12.95
2022-10-28T13:42:50.225Z,12.83
2022-10-28T13:45:54.725Z,12.78
2022-10-28T13:49:22.754Z,12.76
2022-10-28T13:52:25.187Z,12.73
2022-10-28T13:55:42.758Z,12.68
2022-10-28T13:59:05.554Z,12.63
2022-10-28T14:02:35.037Z,12.60
2022-10-28T14:05:38.322Z,12.59
2022-10-28T14:08:43.883Z,12.53
2022-10-28T14:11:46.606Z,12.50
2022-10-28T14:14:52.758Z,12.48
2022-10-28T14:18:37.369Z,12.46
2022-10-28T14:21:56.491Z,12.42
2022-10-28T14:25:04.043Z,12.42
2022-10-28T14:28:31.367Z,12.44
2022-10-28T14:31:38.441Z,12.46
2022-10-28T14:34:42.147Z,12.42
2022-10-28T14:37:50.709Z,12.46
2022-10-28T14:41:18.168Z,12.41
2022-10-28T14:44:35.780Z,12.36
2022-10-28T14:48:00.189Z,12.32
2022-10-28T14:51:03.205Z,12.31
2022-10-28T14:54:10.137Z,12.25
2022-10-28T14:57:12.924Z,12.22
2022-10-28T15:00:18.916Z,12.19
2022-10-28T15:03:21.787Z,12.13
2022-10-28T15:06:40.767Z,12.13
2022-10-28T15:09:44.812Z,12.11
2022-10-28T15:12:51.364Z,12.08
2022-10-28T15:15:57.366Z,12.07
2022-10-28T15:19:06.451Z,12.04
2022-10-28T15:22:14.945Z,12.01
2022-10-28T15:25:20.291Z,11.98
2022-10-28T15:28:23.074Z,11.97
2022-10-28T15:31:25.625Z,11.97
2022-10-28T15:34:29.781Z,11.96
2022-10-28T15:37:36.336Z,11.95
2022-10-28T15:40:39.121Z,11.92
2022-10-28T15:43:41.574Z,11.91
2022-10-28T15:46:49.219Z,11.91
2022-10-28T15:50:14.969Z,11.89
2022-10-28T15:53:40.271Z,11.87
2022-10-28T15:56:54.697Z,11.86
2022-10-28T16:00:28.795Z,11.86
2022-10-28T16:03:46.275Z,11.86
2022-10-28T16:06:52.702Z,11.83
2022-10-28T16:09:56.100Z,11.82
2022-10-28T16:12:58.546Z,11.85
2022-10-28T16:16:04.726Z,11.84
2022-10-28T16:19:09.150Z,11.86
2022-10-28T16:22:13.430Z,11.86
2022-10-28T16:25:20.885Z,11.86
2022-10-28T16:28:26.111Z,11.84
2022-10-28T16:31:29.573Z,11.84
2022-10-28T16:34:32.376Z,11.86
2022-10-28T16:37:35.070Z,11.85
2022-10-28T16:40:50.948Z,11.85
2022-10-28T16:43:55.936Z,11.83
2022-10-28T16:46:58.753Z,11.87
2022-10-28T16:50:01.262Z,11.90
2022-10-28T16:53:04.034Z,11.90
2022-10-28T16:56:12.526Z,11.89
2022-10-28T16:59:16.426Z,11.89
2022-10-28T17:02:28.667Z,11.90
2022-10-28T17:05:32.025Z,11.91
2022-10-28T17:09:01.282Z,11.91
2022-10-28T17:11:57.293Z,11.91
2022-10-28T17:14:59.739Z,11.91
2022-10-28T17:18:02.580Z,11.91
2022-10-28T17:21:05.211Z,11.89
2022-10-28T17:24:08.279Z,11.89
2022-10-28T17:27:10.782Z,11.87
2022-10-28T17:30:13.785Z,11.87
2022-10-28T17:33:16.288Z,11.87
2022-10-28T17:36:19.043Z,11.89
2022-10-28T17:39:25.859Z,11.87
2022-10-28T17:42:29.071Z,11.88
2022-10-28T17:45:31.690Z,11.87
2022-10-28T17:48:34.802Z,11.88
2022-10-28T17:51:38.269Z,11.88
2022-10-28T17:54:41.419Z,11.88
2022-10-28T17:57:45.862Z,11.88
2022-10-28T18:00:48.569Z,11.91
2022-10-28T18:03:51.500Z,11.91
2022-10-28T18:06:55.684Z,11.91
2022-10-28T18:09:58.822Z,11.92
2022-10-28T18:13:01.513Z,11.94
2022-10-28T18:16:25.414Z,11.90
2022-10-28T18:19:32.685Z,11.92
2022-10-28T18:22:35.689Z,11.92
2022-10-28T18:25:38.315Z,11.90
2022-10-28T18:28:42.755Z,11.91
2022-10-28T18:31:45.497Z,11.92
2022-10-28T18:34:48.586Z,11.95
2022-10-28T18:37:51.322Z,11.91
2022-10-28T18:40:54.619Z,11.89
2022-10-28T18:43:59.524Z,11.89
2022-10-28T18:47:02.490Z,11.87
2022-10-28T18:50:05.547Z,11.87
2022-10-28T18:53:08.320Z,11.86
2022-10-28T18:56:13.121Z,11.88
2022-10-28T18:59:16.238Z,11.89
2022-10-28T19:02:19.054Z,11.89
2022-10-28T19:05:22.255Z,11.91
2022-10-28T19:08:24.925Z,11.89
2022-10-28T19:11:32.393Z,11.89
2022-10-28T19:14:35.016Z,11.88
2022-10-28T19:17:38.239Z,11.88
2022-10-28T19:20:40.886Z,11.87
2022-10-28T19:23:43.778Z,11.84
2022-10-28T19:26:46.290Z,11.83
2022-10-28T19:29:49.348Z,11.84
2022-10-28T19:32:52.210Z,11.86
2022-10-28T19:36:00.656Z,11.87
2022-10-28T19:39:03.735Z,11.89
2022-10-28T19:42:06.514Z,11.87
2022-10-28T19:45:09.656Z,11.88
2022-10-28T19:48:12.581Z,11.87
2022-10-28T19:51:20.203Z,11.89
2022-10-28T19:54:23.013Z,11.88
2022-10-28T19:57:25.605Z,11.88
2022-10-28T20:00:28.519Z,11.87
2022-10-28T20:03:34.517Z,11.88
2022-10-28T20:06:39.531Z,11.87
2022-10-28T20:09:42.311Z,11.86
2022-10-28T20:12:44.959Z,11.87
2022-10-28T20:15:47.843Z,11.87
2022-10-28T20:18:50.741Z,11.86
2022-10-28T20:21:53.462Z,11.87
2022-10-28T20:24:56.184Z,11.88
2022-10-28T20:27:59.217Z,11.88
2022-10-28T20:31:03.988Z,11.88
2022-10-28T20:34:07.413Z,11.88
2022-10-28T20:37:09.867Z,11.89
2022-10-28T20:40:12.579Z,11.90
2022-10-28T20:43:16.334Z,11.91
2022-10-28T20:46:20.260Z,11.88
2022-10-28T20:49:22.902Z,11.91
2022-10-28T20:52:25.669Z,11.92
2022-10-28T20:55:28.214Z,11.93
2022-10-28T20:58:33.239Z,11.93
2022-10-28T21:01:40.130Z,11.93
2022-10-28T21:04:43.129Z,11.95
2022-10-28T21:07:45.605Z,11.97
2022-10-28T21:10:48.322Z,11.96
2022-10-28T21:13:52.532Z,11.95
2022-10-28T21:16:55.235Z,11.96
2022-10-28T21:19:57.821Z,11.98
2022-10-28T21:23:00.672Z,11.98
2022-10-28T21:26:05.302Z,11.98
2022-10-28T21:29:08.666Z,11.99
2022-10-28T21:32:11.210Z,12.00
2022-10-28T21:35:13.967Z,12.01
2022-10-28T21:38:18.084Z,12.01
2022-10-28T21:41:21.453Z,12.02
2022-10-28T21:44:23.912Z,12.04
2022-10-28T21:47:27.258Z,12.07
2022-10-28T21:50:29.852Z,12.07
2022-10-28T21:53:34.312Z,12.07
2022-10-28T21:56:36.814Z,12.07
2022-10-28T21:59:39.631Z,12.08
2022-10-28T22:02:42.328Z,12.09
2022-10-28T22:05:51.352Z,12.09
2022-10-28T22:08:55.232Z,12.07
2022-10-28T22:11:57.934Z,12.07
2022-10-28T22:15:00.382Z,12.06
2022-10-28T22:18:03.124Z,12.06
2022-10-28T22:21:18.966Z,12.05
2022-10-28T22:24:21.725Z,12.07
2022-10-28T22:27:24.158Z,12.08
2022-10-28T22:30:27.012Z,12.07
2022-10-28T22:33:29.619Z,12.08
2022-10-28T22:36:32.513Z,12.08
2022-10-28T22:39:35.003Z,12.08
2022-10-28T22:42:37.737Z,12.08
2022-10-28T22:45:40.230Z,12.10
2022-10-28T22:48:43.689Z,12.10
2022-10-28T22:51:46.136Z,12.10
2022-10-28T22:54:48.916Z,12.10
2022-10-28T22:57:54.190Z,12.11
2022-10-28T23:01:16.434Z,12.12
2022-10-28T23:04:19.198Z,12.12
2022-10-28T23:07:21.918Z,12.13
2022-10-28T23:10:24.411Z,12.12
2022-10-28T23:13:27.318Z,12.12
2022-10-28T23:16:29.865Z,12.12
2022-10-28T23:19:33.044Z,12.11
2022-10-28T23:22:35.557Z,12.11
2022-10-28T23:25:38.315Z,12.12
2022-10-28T23:28:41.393Z,12.13
2022-10-28T23:31:44.203Z,12.11
2022-10-28T23:34:46.624Z,12.12
2022-10-28T23:37:49.455Z,12.12
2022-10-28T23:40:56.583Z,12.12
2022-10-28T23:44:00.600Z,12.13
2022-10-28T23:47:03.081Z,12.13
2022-10-28T23:50:06.032Z,12.13
2022-10-28T23:53:08.450Z,12.13
2022-10-28T23:56:11.178Z,12.12
2022-10-28T23:59:13.862Z,12.14
